Terminal Aerodrome Forecast
Issued by NWS

Home | Current Version | Previous Version | Text Only | Print | Product List | Glossary On
Versions: 1 2 3 4 5 6 7 8 9 10 11 12 13 14
000
FTUS46 KOTX 302327
TAFSFF
TAF
KSFF 302327Z 0100/0124 02003KT P6SM VCSH SCT050 SCT070 BKN120
     FM010100 36005KT P6SM SCT050 SCT150
     FM010300 02002KT P6SM SKC=

USA.gov is the U.S. government's official web portal to all federal, state and local government web resources and services.